Terminal Aerodrome Forecast
Issued by NWS Lake Charles, LA

Home | Current Version | Previous Version | Text Only | Print | Product List | Glossary On
Versions: 1 2 3 4 5 6 7 8 9 10 11 12 13 14 15 16 17 18
000
FTUS44 KLCH 241100
TAFARA
TAF
KARA 241136Z 2412/2512 VRB03KT 1/2SM FG BKN003
     FM241400 18008KT P6SM BKN025
     FM241800 20014G20KT P6SM SCT035
     FM250000 19008KT P6SM BKN020
     FM250600 VRB04KT 5SM BR OVC009=

USA.gov is the U.S. government's official web portal to all federal, state and local government web resources and services.